Time;durP1;ratioP1;P1;durP2;ratioP2;P2;SDS_P1;SDS_P2;PMS_P1;PMS_P2;Temp;Humidity;BMP_temperature;BMP_pressure;BME280_temperature;BME280_humidity;BME280_pressure;Samples;Min_cycle;Max_cycle;Signal;HPM_P1;HPM_P2
2023/06/17 00:00:59;;;;;;;8.35;5.28;;;20.40;1.00;;;;;;5073354;28;20180;-64
2023/06/17 00:03:25;;;;;;;8.27;5.50;;;20.30;1.00;;;;;;5073267;28;20169;-64
2023/06/17 00:05:54;;;;;;;8.90;5.47;;;20.30;1.00;;;;;;5073272;28;20216;-64
2023/06/17 00:08:20;;;;;;;8.00;5.18;;;20.30;1.00;;;;;;5073348;28;20230;-64
2023/06/17 00:10:46;;;;;;;5.68;4.97;;;20.20;1.00;;;;;;5073114;28;20699;-63
2023/06/17 00:13:18;;;;;;;6.25;5.10;;;20.20;1.00;;;;;;5072894;28;20177;-62
2023/06/17 00:15:50;;;;;;;8.65;6.05;;;20.20;1.00;;;;;;5073425;28;20207;-63
2023/06/17 00:18:19;;;;;;;7.45;5.60;;;20.10;24.90;;;;;;5073298;28;20176;-63
2023/06/17 00:20:48;;;;;;;9.57;5.40;;;20.10;99.90;;;;;;5073151;28;20173;-63
2023/06/17 00:23:13;;;;;;;9.38;6.82;;;20.10;82.70;;;;;;5073241;28;20172;-63
2023/06/17 00:25:39;;;;;;;6.63;5.93;;;20.10;99.90;;;;;;5073042;28;20215;-63
2023/06/17 00:28:04;;;;;;;8.38;6.22;;;20.00;99.90;;;;;;5054891;28;20275;-63
2023/06/17 00:30:30;;;;;;;6.38;5.20;;;20.00;99.90;;;;;;5072786;28;20556;-64
2023/06/17 00:32:56;;;;;;;10.65;6.20;;;19.90;99.90;;;;;;5073092;28;20161;-63
2023/06/17 00:35:21;;;;;;;5.57;5.15;;;19.90;99.90;;;;;;5073150;28;20647;-63
2023/06/17 00:37:47;;;;;;;5.35;4.65;;;19.80;1.00;;;;;;5072890;28;20208;-62
2023/06/17 00:40:13;;;;;;;5.55;5.07;;;19.80;1.00;;;;;;5072974;28;20169;-64
2023/06/17 00:42:39;;;;;;;7.25;5.10;;;19.70;1.00;;;;;;5074552;28;20222;-64
2023/06/17 00:45:06;;;;;;;8.40;5.40;;;19.70;1.00;;;;;;5076797;28;20254;-64
2023/06/17 00:47:32;;;;;;;6.88;5.45;;;19.60;1.00;;;;;;5076841;28;20161;-63
2023/06/17 00:49:58;;;;;;;7.80;5.40;;;19.60;40.80;;;;;;5077054;28;20175;-63
2023/06/17 00:52:24;;;;;;;9.10;5.20;;;19.60;99.90;;;;;;5077387;28;20169;-64
2023/06/17 00:54:50;;;;;;;8.02;5.55;;;19.60;99.90;;;;;;5076723;28;20225;-64
2023/06/17 00:57:16;;;;;;;5.85;5.32;;;19.60;99.90;;;;;;5076414;28;20169;-62
2023/06/17 00:59:43;;;;;;;8.75;5.70;;;19.60;49.10;;;;;;5076863;28;20223;-63
2023/06/17 01:02:10;;;;;;;7.05;5.45;;;19.50;99.90;;;;;;5076583;28;20165;-64
2023/06/17 01:04:42;;;;;;;5.53;5.07;;;19.40;1.00;;;;;;5076847;28;20617;-63
2023/06/17 01:07:35;;;;;;;7.72;5.40;;;19.40;1.00;;;;;;5076585;28;20173;-64
2023/06/17 01:10:31;;;;;;;8.70;5.53;;;19.40;1.00;;;;;;5076248;28;20197;-63
2023/06/17 01:12:58;;;;;;;7.55;5.63;;;19.30;99.90;;;;;;5035330;28;20267;-65
2023/06/17 01:15:25;;;;;;;7.53;5.88;;;19.40;99.90;;;;;;5076509;28;20199;-64
2023/06/17 01:17:55;;;;;;;6.28;5.50;;;19.30;1.00;;;;;;5076437;28;20227;-64
2023/06/17 01:20:22;;;;;;;5.85;5.20;;;19.20;99.90;;;;;;5076011;28;20226;-63
2023/06/17 01:22:52;;;;;;;5.47;4.97;;;19.10;1.00;;;;;;5076146;28;20172;-64
2023/06/17 01:25:20;;;;;;;5.97;4.90;;;19.10;12.40;;;;;;5075689;28;20702;-64
2023/06/17 01:27:49;;;;;;;6.53;5.40;;;19.00;99.90;;;;;;5076372;28;20267;-63
2023/06/17 01:30:15;;;;;;;6.80;5.32;;;18.90;1.00;;;;;;5076042;28;20203;-63
2023/06/17 01:32:40;;;;;;;6.95;5.50;;;18.90;1.00;;;;;;5075972;28;20212;-63
2023/06/17 01:35:12;;;;;;;6.32;5.70;;;18.90;64.50;;;;;;5075851;28;20181;-62
2023/06/17 01:37:45;;;;;;;8.65;5.20;;;18.80;1.00;;;;;;5074913;28;20315;-62
2023/06/17 01:40:13;;;;;;;6.47;5.53;;;18.80;99.90;;;;;;5074572;28;20172;-62
2023/06/17 01:42:44;;;;;;;6.22;5.63;;;18.80;1.00;;;;;;5074883;28;20187;-63
2023/06/17 01:45:11;;;;;;;8.93;5.43;;;18.80;99.90;;;;;;5074632;28;20278;-63
2023/06/17 01:47:37;;;;;;;8.23;5.50;;;18.70;1.00;;;;;;5074597;28;20169;-63
2023/06/17 01:50:05;;;;;;;5.95;5.38;;;18.80;99.90;;;;;;5074553;28;20172;-63
2023/06/17 01:52:30;;;;;;;6.93;5.40;;;18.80;99.90;;;;;;5074534;28;20172;-62
2023/06/17 01:54:57;;;;;;;7.43;5.57;;;18.80;1.00;;;;;;5074266;28;20180;-62
2023/06/17 01:57:23;;;;;;;10.73;5.55;;;18.70;99.90;;;;;;5074645;28;20177;-63
2023/06/17 01:59:49;;;;;;;8.90;5.40;;;18.70;1.00;;;;;;5074450;28;20264;-62
2023/06/17 02:02:15;;;;;;;6.00;5.37;;;18.60;1.00;;;;;;5074485;28;20168;-63
2023/06/17 02:04:41;;;;;;;9.40;5.37;;;18.60;1.00;;;;;;5074489;28;20559;-63
2023/06/17 02:07:07;;;;;;;7.27;5.50;;;18.60;1.00;;;;;;5074592;28;20179;-63
2023/06/17 02:09:33;;;;;;;7.33;5.67;;;18.50;99.90;;;;;;5074244;28;20603;-63
2023/06/17 02:11:58;;;;;;;6.00;5.47;;;18.50;1.00;;;;;;5074587;28;20176;-63
2023/06/17 02:14:24;;;;;;;5.97;5.40;;;18.50;1.00;;;;;;5074165;28;20183;-63
2023/06/17 02:16:52;;;;;;;8.67;6.17;;;18.50;1.00;;;;;;5074312;28;20627;-63
2023/06/17 02:19:17;;;;;;;11.23;6.20;;;18.50;1.00;;;;;;5074329;28;20176;-63
2023/06/17 02:21:43;;;;;;;7.27;6.03;;;18.50;1.00;;;;;;5074116;28;20196;-64
2023/06/17 02:24:10;;;;;;;12.70;5.80;;;18.50;99.90;;;;;;5073793;28;20200;-63
2023/06/17 02:26:36;;;;;;;8.30;5.93;;;18.60;1.00;;;;;;5074238;28;20247;-62
2023/06/17 02:29:03;;;;;;;7.63;6.40;;;18.60;1.00;;;;;;5074268;28;20219;-64
2023/06/17 02:31:28;;;;;;;7.20;5.87;;;18.60;1.00;;;;;;5073899;28;20246;-63
2023/06/17 02:33:55;;;;;;;7.67;5.20;;;18.60;1.00;;;;;;5074149;28;20227;-63
2023/06/17 02:36:21;;;;;;;8.38;5.88;;;18.50;1.00;;;;;;4412426;28;18897894;-63
2023/06/17 02:38:47;;;;;;;7.73;5.40;;;18.50;1.50;;;;;;5074800;28;20187;-63
2023/06/17 02:41:13;;;;;;;6.97;6.07;;;18.50;1.00;;;;;;5074937;28;20561;-63
2023/06/17 02:43:38;;;;;;;8.67;6.07;;;18.50;29.00;;;;;;5074915;28;20173;-63
2023/06/17 02:46:04;;;;;;;9.43;5.73;;;18.50;1.00;;;;;;5074527;28;20207;-63
2023/06/17 02:48:29;;;;;;;6.67;5.30;;;18.40;99.90;;;;;;5074725;28;20165;-63
2023/06/17 02:50:55;;;;;;;6.20;5.60;;;18.40;1.00;;;;;;5074586;28;20218;-63
2023/06/17 02:53:21;;;;;;;6.33;5.80;;;18.30;54.40;;;;;;5074470;28;20165;-62
2023/06/17 02:55:48;;;;;;;6.40;5.73;;;18.30;1.00;;;;;;5074565;28;20559;-62
2023/06/17 02:58:15;;;;;;;8.90;5.50;;;18.20;99.90;;;;;;5074438;28;20297;-64
2023/06/17 03:00:42;;;;;;;6.53;5.70;;;18.20;1.00;;;;;;5074391;28;20169;-63
2023/06/17 03:03:10;;;;;;;5.70;5.07;;;18.20;1.00;;;;;;5074538;28;20173;-63
2023/06/17 03:05:40;;;;;;;6.30;5.70;;;18.20;1.00;;;;;;5073513;28;20242;-63
2023/06/17 03:08:06;;;;;;;7.83;6.37;;;18.20;1.00;;;;;;5074063;28;20632;-62
2023/06/17 03:10:32;;;;;;;8.63;5.87;;;18.20;1.00;;;;;;5074001;28;20198;-63
2023/06/17 03:13:00;;;;;;;6.17;5.57;;;18.20;99.90;;;;;;5074132;28;20195;-63
2023/06/17 03:15:26;;;;;;;6.10;5.40;;;18.20;21.10;;;;;;5074249;28;20168;-64
2023/06/17 03:17:52;;;;;;;8.27;5.63;;;18.10;99.90;;;;;;5073898;28;20169;-63
2023/06/17 03:20:18;;;;;;;7.33;6.10;;;18.10;1.00;;;;;;5073888;28;20551;-63
2023/06/17 03:22:44;;;;;;;9.43;6.10;;;18.10;1.00;;;;;;5073649;28;20161;-63
2023/06/17 03:25:10;;;;;;;7.10;6.40;;;18.10;1.00;;;;;;5073811;28;20218;-63
2023/06/17 03:27:36;;;;;;;7.17;6.33;;;18.10;1.00;;;;;;5073682;28;20172;-63
2023/06/17 03:30:02;;;;;;;11.73;6.93;;;18.10;99.90;;;;;;5073641;28;20636;-63
2023/06/17 03:32:27;;;;;;;7.63;5.93;;;18.10;1.00;;;;;;5073486;28;20195;-63
2023/06/17 03:34:53;;;;;;;13.27;6.27;;;18.10;99.90;;;;;;5073780;28;20539;-62
2023/06/17 03:37:19;;;;;;;11.27;6.20;;;18.00;1.00;;;;;;5073263;28;20212;-63
2023/06/17 03:39:45;;;;;;;7.90;6.03;;;18.00;99.90;;;;;;5073581;28;20210;-63
2023/06/17 03:42:14;;;;;;;6.47;5.73;;;18.20;58.60;;;;;;5073512;28;20169;-63
2023/06/17 03:44:40;;;;;;;9.32;6.05;;;18.20;48.70;;;;;;5073747;28;20235;-63
2023/06/17 03:47:06;;;;;;;10.55;5.80;;;18.30;99.90;;;;;;5073541;28;20169;-63
2023/06/17 03:49:31;;;;;;;6.70;6.07;;;18.30;1.00;;;;;;5073546;28;20218;-64
2023/06/17 03:51:57;;;;;;;8.17;6.10;;;18.40;1.00;;;;;;5073092;28;20619;-63
2023/06/17 03:54:23;;;;;;;7.78;5.82;;;18.40;1.00;;;;;;5073515;28;20164;-63
2023/06/17 03:56:48;;;;;;;10.67;5.87;;;18.50;1.00;;;;;;5055130;28;20632;-63
2023/06/17 03:59:15;;;;;;;9.20;6.43;;;18.70;99.90;;;;;;5073331;28;20626;-63
2023/06/17 04:01:41;;;;;;;9.45;6.20;;;19.00;1.00;;;;;;5073241;28;20615;-64
2023/06/17 04:04:07;;;;;;;9.68;6.30;;;19.30;1.00;;;;;;5073226;28;20242;-64
2023/06/17 04:06:35;;;;;;;18.85;6.93;;;19.50;99.90;;;;;;5072838;28;20168;-63
2023/06/17 04:09:01;;;;;;;14.82;6.38;;;19.60;1.00;;;;;;5073151;28;20177;-64
2023/06/17 04:11:26;;;;;;;8.88;5.88;;;19.90;99.90;;;;;;5072827;28;20493;-63
2023/06/17 04:13:52;;;;;;;9.77;6.43;;;20.00;1.00;;;;;;5073051;28;20176;-63
2023/06/17 04:16:17;;;;;;;8.93;6.65;;;20.20;99.90;;;;;;5073061;28;20252;-63
2023/06/17 04:18:43;;;;;;;7.82;6.82;;;20.40;49.10;;;;;;5072567;28;20180;-64
2023/06/17 04:21:09;;;;;;;6.53;5.85;;;20.20;1.00;;;;;;5072085;28;20192;-64
2023/06/17 04:23:34;;;;;;;12.45;6.63;;;20.10;99.90;;;;;;5072791;28;20527;-63
2023/06/17 04:26:01;;;;;;;10.73;5.88;;;20.10;99.90;;;;;;5072342;28;20333;-63
2023/06/17 04:28:31;;;;;;;11.68;6.18;;;20.60;1.00;;;;;;5073132;28;20641;-65
2023/06/17 04:30:59;;;;;;;13.20;6.50;;;21.20;99.90;;;;;;5073125;28;20195;-65
2023/06/17 04:33:24;;;;;;;9.63;6.60;;;21.50;28.30;;;;;;5072618;28;20169;-63
2023/06/17 04:35:51;;;;;;;13.27;6.80;;;21.80;1.00;;;;;;5072379;28;20171;-64
2023/06/17 04:38:17;;;;;;;13.18;6.45;;;21.90;1.00;;;;;;5072854;28;20181;-64
2023/06/17 04:40:43;;;;;;;12.43;6.90;;;22.10;1.00;;;;;;5072266;28;20180;-64
2023/06/17 04:43:09;;;;;;;8.52;6.55;;;22.30;1.00;;;;;;5072769;28;20169;-63
2023/06/17 04:45:35;;;;;;;13.65;7.60;;;21.70;1.00;;;;;;5072715;28;20210;-64
2023/06/17 04:48:05;;;;;;;14.50;6.75;;;21.50;1.00;;;;;;5071934;28;20269;-65
2023/06/17 04:50:32;;;;;;;13.55;6.50;;;21.00;1.00;;;;;;5071904;28;20260;-64
2023/06/17 04:53:03;;;;;;;7.30;6.53;;;21.00;1.00;;;;;;5071923;28;20177;-64
2023/06/17 04:55:30;;;;;;;8.93;6.55;;;21.10;1.00;;;;;;5072229;28;20176;-64
2023/06/17 04:57:56;;;;;;;12.82;6.97;;;21.80;1.00;;;;;;5072631;28;20176;-63
2023/06/17 05:00:22;;;;;;;7.05;6.35;;;21.80;1.00;;;;;;5072506;28;20173;-65
2023/06/17 05:02:48;;;;;;;9.00;6.47;;;21.90;1.00;;;;;;5072497;28;20557;-64
2023/06/17 05:05:13;;;;;;;7.57;6.60;;;21.80;1.00;;;;;;5071835;28;20256;-65
2023/06/17 05:07:39;;;;;;;14.27;7.05;;;21.60;1.00;;;;;;5071623;28;20225;-64
2023/06/17 05:10:05;;;;;;;11.82;6.68;;;21.80;1.00;;;;;;5072066;28;20257;-65
2023/06/17 05:12:31;;;;;;;13.38;7.13;;;22.10;1.00;;;;;;5072218;28;20213;-65
2023/06/17 05:14:56;;;;;;;9.43;6.55;;;22.90;1.00;;;;;;5072089;28;20638;-63
2023/06/17 05:17:22;;;;;;;8.63;5.97;;;23.70;99.90;;;;;;5071902;28;20170;-64
2023/06/17 05:19:49;;;;;;;8.73;6.15;;;24.10;99.90;;;;;;5072113;28;20169;-64
2023/06/17 05:22:15;;;;;;;8.25;6.15;;;24.20;99.90;;;;;;5071687;28;20168;-65
2023/06/17 05:24:40;;;;;;;7.10;6.40;;;24.30;99.90;;;;;;5072222;28;20213;-66
2023/06/17 05:27:08;;;;;;;8.20;6.38;;;25.10;99.90;;;;;;5072613;28;20564;-64
2023/06/17 05:29:34;;;;;;;7.45;6.53;;;25.90;99.90;;;;;;5075065;28;20185;-65
2023/06/17 05:31:59;;;;;;;8.50;6.35;;;25.20;99.90;;;;;;5075299;28;20181;-65
2023/06/17 05:34:25;;;;;;;8.13;6.55;;;24.30;99.90;;;;;;5075712;28;20173;-64
2023/06/17 05:36:51;;;;;;;7.35;6.43;;;23.90;99.90;;;;;;5075377;28;20212;-64
2023/06/17 05:39:16;;;;;;;7.75;6.35;;;23.60;99.90;;;;;;5074787;28;20204;-65
2023/06/17 05:41:42;;;;;;;8.38;6.70;;;23.10;99.90;;;;;;5075402;28;20601;-65
2023/06/17 05:44:08;;;;;;;8.45;7.10;;;22.60;99.90;;;;;;5075998;28;20196;-65
2023/06/17 05:46:33;;;;;;;6.93;6.22;;;22.80;99.90;;;;;;5075043;28;20593;-67
2023/06/17 05:48:59;;;;;;;9.32;7.10;;;23.30;99.90;;;;;;5075246;28;20177;-65
2023/06/17 05:51:25;;;;;;;11.38;7.03;;;24.50;99.90;;;;;;5075417;28;20172;-65
2023/06/17 05:53:51;;;;;;;8.02;7.15;;;25.20;99.90;;;;;;5075000;28;20238;-67
2023/06/17 05:56:16;;;;;;;7.95;6.97;;;24.80;99.90;;;;;;5075007;28;20611;-65
2023/06/17 05:58:42;;;;;;;9.13;7.00;;;25.00;99.90;;;;;;5075303;28;20172;-65
2023/06/17 06:01:08;;;;;;;8.45;7.13;;;25.30;99.90;;;;;;5074522;28;20642;-66
2023/06/17 06:03:33;;;;;;;7.85;7.15;;;24.70;99.90;;;;;;5075413;28;20164;-66
2023/06/17 06:06:00;;;;;;;10.70;7.60;;;24.30;99.90;;;;;;5074917;28;20567;-66
2023/06/17 06:08:25;;;;;;;8.38;7.57;;;25.00;99.90;;;;;;5075200;28;20165;-66
2023/06/17 06:10:51;;;;;;;10.57;7.00;;;25.40;99.90;;;;;;5074922;28;20673;-67
2023/06/17 06:13:17;;;;;;;13.05;7.45;;;26.00;99.90;;;;;;5075221;28;20176;-66
2023/06/17 06:15:42;;;;;;;11.25;7.68;;;26.00;96.40;;;;;;5074567;28;20176;-67
2023/06/17 06:18:08;;;;;;;9.88;7.28;;;26.50;53.80;;;;;;5074718;28;20255;-65
2023/06/17 06:20:33;;;;;;;7.70;6.90;;;27.80;23.10;;;;;;5074707;28;20695;-66
2023/06/17 06:23:00;;;;;;;8.40;7.60;;;29.10;1.00;;;;;;5074870;28;20195;-65
2023/06/17 06:25:26;;;;;;;8.30;7.43;;;28.10;1.00;;;;;;5074455;28;20216;-65
2023/06/17 06:27:52;;;;;;;8.02;7.20;;;27.00;1.00;;;;;;5074921;28;20168;-65
2023/06/17 06:30:17;;;;;;;8.55;6.90;;;27.00;1.00;;;;;;5074162;28;20683;-65
2023/06/17 06:32:45;;;;;;;7.80;7.10;;;27.40;1.00;;;;;;5074546;28;20229;-67
2023/06/17 06:35:10;;;;;;;9.50;7.25;;;27.30;1.00;;;;;;5074657;28;20179;-65
2023/06/17 06:37:36;;;;;;;9.20;7.70;;;28.00;1.00;;;;;;5074043;28;20212;-68
2023/06/17 06:40:02;;;;;;;8.38;7.57;;;26.20;1.00;;;;;;5073123;28;20524;-65
2023/06/17 06:42:28;;;;;;;7.95;7.35;;;25.40;1.00;;;;;;5074457;28;20216;-66
2023/06/17 06:44:54;;;;;;;9.35;7.65;;;25.90;1.00;;;;;;5074397;28;20238;-65
2023/06/17 06:47:19;;;;;;;7.80;7.07;;;26.10;1.00;;;;;;5074679;28;20323;-67
2023/06/17 06:49:45;;;;;;;7.68;6.97;;;26.00;1.00;;;;;;5073590;28;20175;-66
2023/06/17 06:52:11;;;;;;;9.80;7.07;;;25.60;1.00;;;;;;5074404;28;20178;-66
2023/06/17 06:54:36;;;;;;;7.35;6.70;;;25.60;1.00;;;;;;5056371;28;20538;-67
2023/06/17 06:57:02;;;;;;;8.13;7.32;;;26.20;1.00;;;;;;5074205;28;20242;-67
2023/06/17 06:59:27;;;;;;;8.85;8.00;;;26.80;1.00;;;;;;5073534;28;20258;-67
2023/06/17 07:01:53;;;;;;;9.00;7.53;;;27.10;1.00;;;;;;5073873;28;20173;-67
2023/06/17 07:04:22;;;;;;;8.55;7.75;;;27.10;1.00;;;;;;5074032;28;20212;-66
2023/06/17 07:06:47;;;;;;;9.80;7.80;;;27.40;1.00;;;;;;5073562;28;20168;-67
2023/06/17 07:09:13;;;;;;;9.48;7.20;;;28.00;1.00;;;;;;5074180;28;20230;-67
2023/06/17 07:11:39;;;;;;;7.90;7.20;;;28.30;1.00;;;;;;5073811;28;20243;-67
2023/06/17 07:14:04;;;;;;;7.82;7.10;;;28.00;1.00;;;;;;5073674;28;20164;-68
2023/06/17 07:16:30;;;;;;;8.93;7.03;;;27.50;1.00;;;;;;5073442;28;20191;-66
2023/06/17 07:18:56;;;;;;;10.40;6.72;;;27.80;1.00;;;;;;5073653;28;20169;-68
2023/06/17 07:21:22;;;;;;;7.63;7.03;;;27.50;1.00;;;;;;5073800;28;20635;-67
2023/06/17 07:23:47;;;;;;;9.23;7.65;;;28.40;1.00;;;;;;5073348;28;20237;-67
2023/06/17 07:26:13;;;;;;;7.82;6.50;;;28.20;1.00;;;;;;5073840;28;20584;-67
2023/06/17 07:28:39;;;;;;;7.70;7.10;;;28.90;1.00;;;;;;5073235;28;20164;-68
2023/06/17 07:31:05;;;;;;;8.23;6.80;;;29.90;1.00;;;;;;5073210;28;20193;-68
2023/06/17 07:33:31;;;;;;;8.57;7.38;;;30.80;1.00;;;;;;5073529;28;20165;-67
2023/06/17 07:35:57;;;;;;;7.80;7.00;;;30.60;1.00;;;;;;5073243;28;20172;-67
2023/06/17 07:38:24;;;;;;;10.02;6.85;;;31.20;1.00;;;;;;5055193;28;20176;-68
2023/06/17 07:40:50;;;;;;;8.48;6.45;;;31.00;1.00;;;;;;5073070;28;20183;-67
2023/06/17 07:43:16;;;;;;;7.47;6.78;;;31.90;1.00;;;;;;5073266;28;20157;-67
2023/06/17 07:45:42;;;;;;;7.05;6.45;;;31.90;1.00;;;;;;5072806;28;20222;-68
2023/06/17 07:48:08;;;;;;;7.28;6.47;;;30.60;1.00;;;;;;5072895;28;20176;-67
2023/06/17 07:50:33;;;;;;;7.60;6.15;;;30.90;1.00;;;;;;5072366;28;20252;-67
2023/06/17 07:52:59;;;;;;;9.57;6.97;;;32.20;1.00;;;;;;5072575;28;20527;-68
2023/06/17 07:55:26;;;;;;;8.10;6.93;;;31.00;1.00;;;;;;5072234;28;20624;-68
2023/06/17 07:57:52;;;;;;;7.00;6.50;;;31.20;1.00;;;;;;5072198;28;20213;-68
2023/06/17 08:00:18;;;;;;;8.88;7.97;;;31.00;1.00;;;;;;5072694;28;20180;-67
2023/06/17 08:02:44;;;;;;;8.60;6.40;;;31.20;1.00;;;;;;5073142;28;20504;-68
2023/06/17 08:05:09;;;;;;;8.93;6.30;;;31.00;1.00;;;;;;5072852;28;20685;-68
2023/06/17 08:07:36;;;;;;;7.18;6.18;;;30.30;1.00;;;;;;5072095;28;20172;-67
2023/06/17 08:10:02;;;;;;;9.00;6.22;;;31.90;1.00;;;;;;5073049;28;20172;-69
2023/06/17 08:12:27;;;;;;;6.93;6.22;;;31.90;1.00;;;;;;5072567;28;20172;-69
2023/06/17 08:14:53;;;;;;;7.00;6.30;;;32.20;1.00;;;;;;5072704;28;20583;-69
2023/06/17 08:17:19;;;;;;;9.68;6.32;;;32.10;1.00;;;;;;5071900;28;20160;-68
2023/06/17 08:19:44;;;;;;;6.80;6.05;;;33.70;1.00;;;;;;5072874;28;20175;-67
2023/06/17 08:22:10;;;;;;;7.57;6.18;;;33.70;1.00;;;;;;5072484;28;20256;-67
2023/06/17 08:24:36;;;;;;;7.35;5.80;;;33.90;1.00;;;;;;5072922;28;20212;-68
2023/06/17 08:27:04;;;;;;;6.70;5.80;;;33.50;1.00;;;;;;5072465;28;20256;-68
2023/06/17 08:29:31;;;;;;;6.00;5.28;;;34.50;1.00;;;;;;5072616;28;20164;-69
2023/06/17 08:31:56;;;;;;;7.95;6.00;;;34.50;1.00;;;;;;5072492;28;20650;-66
2023/06/17 08:34:22;;;;;;;6.35;5.93;;;34.50;1.00;;;;;;5072809;28;20248;-66
2023/06/17 08:36:52;;;;;;;7.95;6.00;;;34.40;1.00;;;;;;5072396;28;20220;-67
2023/06/17 08:39:18;;;;;;;7.20;5.40;;;34.80;1.00;;;;;;5072555;28;20169;-68
2023/06/17 08:41:44;;;;;;;6.13;5.53;;;35.30;1.00;;;;;;5072543;28;20200;-68
2023/06/17 08:44:12;;;;;;;6.35;5.75;;;36.30;1.00;;;;;;5071610;28;20165;-68
2023/06/17 08:46:39;;;;;;;5.80;5.40;;;35.60;1.00;;;;;;5072509;28;20172;-68
2023/06/17 08:49:07;;;;;;;7.43;5.15;;;35.10;1.00;;;;;;5072348;28;20207;-68
2023/06/17 08:51:33;;;;;;;6.72;5.78;;;35.00;1.00;;;;;;5054587;28;20176;-68
2023/06/17 08:54:01;;;;;;;6.20;5.65;;;36.00;1.00;;;;;;5072596;28;20168;-68
2023/06/17 08:56:27;;;;;;;6.53;5.65;;;36.30;1.00;;;;;;5071823;28;20172;-69
2023/06/17 08:58:55;;;;;;;5.70;5.20;;;34.80;1.00;;;;;;5071989;28;20164;-68
2023/06/17 09:01:22;;;;;;;5.80;5.30;;;34.30;1.00;;;;;;5072418;28;20199;-69
2023/06/17 09:03:52;;;;;;;6.05;5.45;;;34.90;1.00;;;;;;5074528;28;20196;-67
2023/06/17 09:06:20;;;;;;;6.60;5.07;;;34.50;1.00;;;;;;5075553;28;20203;-68
2023/06/17 09:08:46;;;;;;;6.43;5.88;;;34.70;1.00;;;;;;5075658;28;20172;-68
2023/06/17 09:11:12;;;;;;;6.28;5.60;;;35.20;1.00;;;;;;5075731;28;20526;-68
2023/06/17 09:13:37;;;;;;;7.38;5.57;;;36.20;1.00;;;;;;5076553;28;20168;-68
2023/06/17 09:16:03;;;;;;;8.15;5.95;;;35.50;1.00;;;;;;5076057;28;20172;-68
2023/06/17 09:18:33;;;;;;;7.28;5.57;;;36.10;1.00;;;;;;5075877;28;20238;-67
2023/06/17 09:20:58;;;;;;;6.00;5.18;;;36.70;1.00;;;;;;5076077;28;20195;-67
2023/06/17 09:23:24;;;;;;;8.50;5.72;;;35.70;1.00;;;;;;5075593;28;20623;-68
2023/06/17 09:26:02;;;;;;;6.18;5.70;;;35.70;1.00;;;;;;5076183;28;20211;-68
2023/06/17 09:28:28;;;;;;;6.00;5.35;;;34.80;1.00;;;;;;5075903;28;20164;-68
2023/06/17 09:30:57;;;;;;;6.28;5.65;;;34.40;1.00;;;;;;5075456;28;20629;-67
2023/06/17 09:33:24;;;;;;;6.70;5.50;;;33.50;1.00;;;;;;5075891;28;20161;-68
2023/06/17 09:35:59;;;;;;;6.15;5.38;;;32.40;1.00;;;;;;5057491;28;20181;-69
2023/06/17 09:38:27;;;;;;;6.10;5.60;;;33.10;1.00;;;;;;5075665;28;20283;-68
2023/06/17 09:40:54;;;;;;;7.55;5.18;;;34.30;1.00;;;;;;5075309;28;20207;-68
2023/06/17 09:43:23;;;;;;;5.75;5.35;;;34.90;1.00;;;;;;5075817;28;20164;-68
2023/06/17 09:45:54;;;;;;;5.68;5.28;;;35.20;1.00;;;;;;5075229;28;20615;-68
2023/06/17 09:48:24;;;;;;;5.65;5.15;;;35.40;1.00;;;;;;5075317;28;20251;-69
2023/06/17 09:50:55;;;;;;;5.80;5.40;;;35.60;1.00;;;;;;5075376;28;20620;-68
2023/06/17 09:53:27;;;;;;;7.05;5.40;;;33.10;1.00;;;;;;5075281;28;20244;-68
2023/06/17 09:55:57;;;;;;;6.05;5.47;;;32.30;1.00;;;;;;5074586;28;20176;-68
2023/06/17 09:58:30;;;;;;;6.72;5.40;;;33.20;1.00;;;;;;5075132;28;20623;-68
2023/06/17 10:01:05;;;;;;;6.75;5.53;;;34.50;1.00;;;;;;5075197;28;20181;-69
2023/06/17 10:03:33;;;;;;;5.78;5.47;;;35.60;1.00;;;;;;5057293;28;20213;-68
2023/06/17 10:06:06;;;;;;;6.63;5.25;;;36.40;1.00;;;;;;5074730;28;20322;-69
2023/06/17 10:08:36;;;;;;;7.22;5.70;;;37.30;1.00;;;;;;5074406;28;20199;-69
2023/06/17 10:11:02;;;;;;;9.13;5.50;;;37.80;1.00;;;;;;5074694;28;20567;-68
2023/06/17 10:13:31;;;;;;;6.38;5.72;;;37.60;1.00;;;;;;5056765;28;20263;-69
2023/06/17 10:15:58;;;;;;;6.47;5.60;;;36.90;1.00;;;;;;5075035;28;20248;-68
2023/06/17 10:18:25;;;;;;;5.80;5.40;;;35.50;1.00;;;;;;5074753;28;20192;-69
2023/06/17 10:20:52;;;;;;;6.43;5.85;;;33.00;1.00;;;;;;5074714;28;20164;-69
2023/06/17 10:23:20;;;;;;;6.45;5.80;;;31.70;1.00;;;;;;5074536;28;20172;-68
2023/06/17 10:25:46;;;;;;;14.23;7.05;;;31.80;1.00;;;;;;5074278;28;20207;-68
2023/06/17 10:28:14;;;;;;;7.15;6.65;;;32.30;1.00;;;;;;5074593;28;20529;-68
2023/06/17 10:30:43;;;;;;;6.68;5.35;;;32.60;1.00;;;;;;5074332;28;20273;-69
2023/06/17 10:33:08;;;;;;;6.13;5.63;;;32.10;1.00;;;;;;5074461;28;20228;-69
2023/06/17 10:35:41;;;;;;;7.70;5.55;;;32.40;1.00;;;;;;5074429;28;20200;-68
2023/06/17 10:38:08;;;;;;;5.85;5.32;;;32.50;1.00;;;;;;5074387;28;20255;-70
2023/06/17 10:40:40;;;;;;;8.07;6.35;;;33.20;1.00;;;;;;5073640;28;20191;-68
2023/06/17 10:43:06;;;;;;;6.82;5.60;;;32.90;1.00;;;;;;5074069;28;20647;-68
2023/06/17 10:45:44;;;;;;;5.75;5.13;;;32.70;1.00;;;;;;5074334;28;20205;-68
2023/06/17 10:48:16;;;;;;;5.30;4.90;;;32.10;1.00;;;;;;5074319;28;20202;-69
2023/06/17 10:50:50;;;;;;;5.70;5.20;;;32.20;1.00;;;;;;5073495;28;20183;-68
2023/06/17 10:53:16;;;;;;;6.10;5.20;;;32.80;1.00;;;;;;5074509;28;20172;-69
2023/06/17 10:55:42;;;;;;;7.53;5.28;;;33.60;1.00;;;;;;5074235;28;20636;-68
2023/06/17 10:58:09;;;;;;;5.15;4.75;;;34.00;1.00;;;;;;5073720;28;20188;-68
2023/06/17 11:00:34;;;;;;;5.85;4.72;;;34.00;1.00;;;;;;5073670;28;20203;-67
2023/06/17 11:03:00;;;;;;;5.93;4.43;;;34.30;1.00;;;;;;5074234;28;20193;-68
2023/06/17 11:05:26;;;;;;;5.50;5.03;;;33.80;1.00;;;;;;5072826;28;20200;-67
2023/06/17 11:07:52;;;;;;;5.30;4.90;;;33.70;1.00;;;;;;5073989;28;20177;-67
2023/06/17 11:10:24;;;;;;;5.53;5.03;;;32.80;1.00;;;;;;5073719;28;20557;-68
2023/06/17 11:12:50;;;;;;;5.32;4.93;;;32.80;1.00;;;;;;5073883;28;20168;-67
2023/06/17 11:15:16;;;;;;;5.72;5.32;;;32.40;1.00;;;;;;5073692;28;20214;-67
2023/06/17 11:17:42;;;;;;;6.38;5.82;;;33.00;1.00;;;;;;5073490;28;20247;-67
2023/06/17 11:20:08;;;;;;;5.70;5.30;;;33.80;1.00;;;;;;5072954;28;20168;-68
2023/06/17 11:22:38;;;;;;;6.45;4.63;;;34.30;1.00;;;;;;5073753;28;20161;-69
2023/06/17 11:25:04;;;;;;;7.00;5.22;;;34.70;1.00;;;;;;5073609;28;20204;-69
2023/06/17 11:27:30;;;;;;;8.02;4.78;;;35.10;1.00;;;;;;5073038;28;20164;-68
2023/06/17 11:29:56;;;;;;;7.30;5.20;;;35.40;1.00;;;;;;5073911;28;20184;-69
2023/06/17 11:32:24;;;;;;;5.50;4.72;;;35.90;1.00;;;;;;5073530;28;20192;-68
2023/06/17 11:34:51;;;;;;;5.60;5.10;;;36.00;1.00;;;;;;5073118;28;20655;-69
2023/06/17 11:37:18;;;;;;;5.55;5.10;;;36.20;1.00;;;;;;5072998;28;20216;-68
2023/06/17 11:39:44;;;;;;;5.13;4.82;;;35.80;1.00;;;;;;5073311;28;20192;-68
2023/06/17 11:42:10;;;;;;;5.53;5.00;;;34.20;1.00;;;;;;5073455;28;20246;-68
2023/06/17 11:44:37;;;;;;;5.80;5.30;;;33.60;1.00;;;;;;5073135;28;20212;-68
2023/06/17 11:47:07;;;;;;;5.53;5.10;;;33.10;1.00;;;;;;5073621;28;20168;-67
2023/06/17 11:49:33;;;;;;;9.05;6.97;;;33.00;1.00;;;;;;5072594;28;20173;-67
2023/06/17 11:52:01;;;;;;;6.97;5.57;;;33.50;1.00;;;;;;5072806;28;20224;-68
2023/06/17 11:54:29;;;;;;;5.72;5.25;;;33.10;1.00;;;;;;5073065;28;20195;-67
2023/06/17 11:56:55;;;;;;;5.93;5.53;;;32.40;1.00;;;;;;5054382;28;20176;-68
2023/06/17 11:59:21;;;;;;;6.75;6.18;;;32.90;1.00;;;;;;5072517;28;20255;-67
2023/06/17 12:01:47;;;;;;;5.25;4.85;;;33.60;1.00;;;;;;5072173;28;20215;-68
2023/06/17 12:04:16;;;;;;;10.57;6.40;;;33.80;1.00;;;;;;5072212;28;20168;-68
2023/06/17 12:06:44;;;;;;;6.57;5.70;;;33.10;1.00;;;;;;5072761;28;20256;-68
2023/06/17 12:09:11;;;;;;;6.22;5.80;;;32.90;1.00;;;;;;5072869;28;20252;-66
2023/06/17 12:11:41;;;;;;;6.22;5.72;;;31.80;1.00;;;;;;5072245;28;20686;-68
2023/06/17 12:14:11;;;;;;;6.13;5.68;;;30.80;1.00;;;;;;5072308;28;20167;-67
2023/06/17 12:16:39;;;;;;;6.13;5.60;;;30.60;1.00;;;;;;5072715;28;20204;-66
2023/06/17 12:19:28;;;;;;;6.50;5.28;;;30.70;1.00;;;;;;5072777;28;20180;-67
2023/06/17 12:21:54;;;;;;;7.25;5.93;;;31.10;1.00;;;;;;5072295;28;20165;-67
2023/06/17 12:24:19;;;;;;;5.75;5.32;;;31.00;1.00;;;;;;5072247;28;20214;-66
2023/06/17 12:26:45;;;;;;;6.00;5.50;;;31.50;1.00;;;;;;5072274;28;20254;-67
2023/06/17 12:29:13;;;;;;;6.10;5.70;;;31.70;1.00;;;;;;5072430;28;20171;-67
2023/06/17 12:31:39;;;;;;;5.88;5.32;;;32.30;1.00;;;;;;5072087;28;20200;-67
2023/06/17 12:34:06;;;;;;;5.75;5.25;;;32.40;1.00;;;;;;5071429;28;20195;-67
2023/06/17 12:36:32;;;;;;;6.30;5.70;;;32.60;1.00;;;;;;5072219;28;20228;-67
2023/06/17 12:39:00;;;;;;;5.88;5.40;;;32.60;1.00;;;;;;5076610;28;20168;-68
2023/06/17 12:41:26;;;;;;;7.20;5.30;;;32.10;1.00;;;;;;5076201;28;20171;-67
2023/06/17 12:43:51;;;;;;;5.10;4.78;;;31.70;1.00;;;;;;5076627;28;20168;-67
2023/06/17 12:46:17;;;;;;;5.82;5.30;;;31.30;1.00;;;;;;5076552;28;20291;-67
2023/06/17 12:48:43;;;;;;;5.97;5.47;;;30.90;1.00;;;;;;5075820;28;20173;-66
2023/06/17 12:51:08;;;;;;;6.40;5.80;;;31.20;1.00;;;;;;5076077;28;20204;-67